createdAt,value
2023-05-05T00:00:20.901Z,64.30
2023-05-05T00:02:49.873Z,64.86
2023-05-05T00:05:18.048Z,65.02
2023-05-05T00:07:46.624Z,65.23
2023-05-05T00:10:15.189Z,65.50
2023-05-05T00:12:43.728Z,65.46
2023-05-05T00:15:11.889Z,65.99
2023-05-05T00:17:40.680Z,66.04
2023-05-05T00:20:10.108Z,65.99
2023-05-05T00:22:38.780Z,65.96
2023-05-05T00:25:07.669Z,66.46
2023-05-05T00:27:36.330Z,66.56
2023-05-05T00:30:06.186Z,66.18
2023-05-05T00:32:34.868Z,66.56
2023-05-05T00:35:02.996Z,66.55
2023-05-05T00:37:31.561Z,67.45
2023-05-05T00:40:00.197Z,67.27
2023-05-05T00:42:28.550Z,67.87
2023-05-05T00:44:56.641Z,67.47
2023-05-05T00:47:25.091Z,68.02
2023-05-05T00:49:53.634Z,68.11
2023-05-05T00:52:22.197Z,68.56
2023-05-05T00:54:50.440Z,68.71
2023-05-05T00:57:18.615Z,68.33
2023-05-05T00:59:48.006Z,68.66
2023-05-05T01:02:16.486Z,68.72
2023-05-05T01:04:44.583Z,68.70
2023-05-05T01:10:42.261Z,69.20
2023-05-05T01:13:22.475Z,69.27
2023-05-05T01:16:16.261Z,69.68
2023-05-05T01:19:25.705Z,69.85
2023-05-05T01:22:01.533Z,69.89
2023-05-05T01:24:56.979Z,69.87
2023-05-05T01:27:50.001Z,69.84
2023-05-05T01:30:58.318Z,70.34
2023-05-05T01:33:35.211Z,70.11
2023-05-05T01:36:14.537Z,69.98
2023-05-05T01:38:46.148Z,69.98
2023-05-05T01:41:27.989Z,70.80
2023-05-05T01:44:01.318Z,71.09
2023-05-05T01:46:29.899Z,70.44
2023-05-05T01:48:59.310Z,70.73
2023-05-05T01:51:29.392Z,72.68
2023-05-05T01:54:02.697Z,73.01
2023-05-05T01:56:32.784Z,72.87
2023-05-05T01:59:02.441Z,73.63
2023-05-05T02:01:31.782Z,75.20
2023-05-05T02:04:01.045Z,74.90
2023-05-05T02:06:32.464Z,74.69
2023-05-05T02:09:01.553Z,74.48
2023-05-05T02:11:30.755Z,73.70
2023-05-05T02:14:00.110Z,73.21
2023-05-05T02:16:31.228Z,72.44
2023-05-05T02:19:04.721Z,72.46
2023-05-05T02:21:33.922Z,72.23
2023-05-05T02:24:02.641Z,71.68
2023-05-05T02:26:34.251Z,72.17
2023-05-05T02:29:18.835Z,71.88
2023-05-05T02:31:51.194Z,71.39
2023-05-05T02:34:25.354Z,71.61
2023-05-05T02:36:57.368Z,71.68
2023-05-05T02:39:58.389Z,71.06
2023-05-05T02:42:30.723Z,70.84
2023-05-05T02:45:03.505Z,71.13
2023-05-05T02:47:38.650Z,71.34
2023-05-05T02:50:08.859Z,71.00
2023-05-05T02:52:37.807Z,71.21
2023-05-05T02:55:08.018Z,71.15
2023-05-05T02:57:44.728Z,71.48
2023-05-05T03:00:45.948Z,71.61
2023-05-05T03:03:32.473Z,71.10
2023-05-05T03:06:24.093Z,71.25
2023-05-05T03:09:11.176Z,71.64
2023-05-05T03:11:51.625Z,71.93
2023-05-05T03:14:22.316Z,72.21
2023-05-05T03:16:51.380Z,72.07
2023-05-05T03:19:21.437Z,71.97
2023-05-05T03:21:50.016Z,72.35
2023-05-05T03:24:22.473Z,72.30
2023-05-05T03:26:51.517Z,72.05
2023-05-05T03:29:19.674Z,72.28
2023-05-05T03:31:48.168Z,72.34
2023-05-05T03:34:16.314Z,72.50
2023-05-05T03:36:44.804Z,72.87
2023-05-05T03:39:13.276Z,72.49
2023-05-05T03:41:41.331Z,72.34
2023-05-05T03:44:09.780Z,72.52
2023-05-05T03:46:38.239Z,72.42
2023-05-05T03:49:07.160Z,72.41
2023-05-05T03:51:35.676Z,72.68
2023-05-05T03:54:04.329Z,72.34
2023-05-05T03:56:32.541Z,72.64
2023-05-05T03:59:00.807Z,72.83
2023-05-05T04:01:31.449Z,72.57
2023-05-05T04:03:59.991Z,72.65
2023-05-05T04:06:28.125Z,72.29
2023-05-05T04:08:56.694Z,72.55
2023-05-05T04:11:25.222Z,72.29
2023-05-05T04:13:53.704Z,72.29
2023-05-05T04:16:22.271Z,72.15
2023-05-05T04:18:50.786Z,72.30
2023-05-05T04:21:19.419Z,72.46
2023-05-05T04:23:47.513Z,72.26
2023-05-05T04:26:15.649Z,72.34
2023-05-05T04:28:44.050Z,71.99
2023-05-05T04:31:12.642Z,72.19
2023-05-05T04:33:41.236Z,72.60
2023-05-05T04:36:09.830Z,72.24
2023-05-05T04:38:38.359Z,72.48
2023-05-05T04:41:07.486Z,72.26
2023-05-05T04:43:35.912Z,71.81
2023-05-05T04:46:04.448Z,71.90
2023-05-05T04:48:34.398Z,71.82
2023-05-05T04:51:07.202Z,71.66
2023-05-05T04:53:36.088Z,71.66
2023-05-05T04:56:04.649Z,70.70
2023-05-05T04:58:33.074Z,70.09
2023-05-05T05:01:01.582Z,69.59
2023-05-05T05:03:32.123Z,69.33
2023-05-05T05:06:00.888Z,68.72
2023-05-05T05:08:29.344Z,67.74
2023-05-05T05:10:57.473Z,67.76
2023-05-05T05:13:26.163Z,67.01
2023-05-05T05:15:54.724Z,66.74
2023-05-05T05:18:23.194Z,65.55
2023-05-05T05:20:51.336Z,65.32
2023-05-05T05:23:19.546Z,64.51
2023-05-05T05:25:47.871Z,63.65
2023-05-05T05:28:16.420Z,62.91
2023-05-05T05:30:44.598Z,62.10
2023-05-05T05:33:13.104Z,62.39
2023-05-05T05:35:41.644Z,61.47
2023-05-05T05:38:10.147Z,59.68
2023-05-05T05:40:38.666Z,59.30
2023-05-05T05:43:07.232Z,58.53
2023-05-05T05:45:35.929Z,57.31
2023-05-05T05:48:04.524Z,57.20
2023-05-05T05:50:33.209Z,56.21
2023-05-05T05:53:01.735Z,54.82
2023-05-05T05:55:30.224Z,54.53
2023-05-05T05:57:58.763Z,52.74
2023-05-05T06:00:27.149Z,52.50
2023-05-05T06:02:55.785Z,50.58
2023-05-05T06:05:24.398Z,50.09
2023-05-05T06:07:52.904Z,49.85
2023-05-05T06:12:54.111Z,47.06
2023-05-05T06:15:22.629Z,47.13
2023-05-05T06:17:51.214Z,46.71
2023-05-05T06:20:19.552Z,46.24
2023-05-05T06:22:47.728Z,45.72
2023-05-05T06:25:16.662Z,45.70
2023-05-05T06:27:45.176Z,45.54
2023-05-05T06:30:14.823Z,44.93
2023-05-05T06:32:43.412Z,44.82
2023-05-05T06:35:12.397Z,43.60
2023-05-05T06:37:40.937Z,44.12
2023-05-05T06:40:10.549Z,43.32
2023-05-05T06:42:39.193Z,43.87
2023-05-05T06:45:08.059Z,43.65
2023-05-05T06:47:37.025Z,42.97
2023-05-05T06:50:05.762Z,43.94
2023-05-05T06:52:34.559Z,43.38
2023-05-05T06:55:03.880Z,43.30
2023-05-05T06:57:32.451Z,43.34
2023-05-05T07:00:01.235Z,42.83
2023-05-05T07:02:29.888Z,42.59
2023-05-05T07:04:58.579Z,42.21
2023-05-05T07:07:27.134Z,41.79
2023-05-05T07:09:55.919Z,42.02
2023-05-05T07:12:24.486Z,41.81
2023-05-05T07:14:52.945Z,41.26
2023-05-05T07:17:22.172Z,40.77
2023-05-05T07:19:51.316Z,40.24
2023-05-05T07:22:19.833Z,40.62
2023-05-05T07:24:49.739Z,39.29
2023-05-05T07:27:18.960Z,39.28
2023-05-05T07:29:47.423Z,38.71
2023-05-05T07:32:16.197Z,38.80
2023-05-05T07:34:44.729Z,38.58
2023-05-05T07:37:13.741Z,38.40
2023-05-05T07:39:42.272Z,37.88
2023-05-05T07:42:11.388Z,37.44
2023-05-05T07:44:39.961Z,37.37
2023-05-05T07:47:08.493Z,37.89
2023-05-05T07:49:36.996Z,38.29
2023-05-05T07:52:05.768Z,38.42
2023-05-05T07:54:34.311Z,37.28
2023-05-05T07:57:03.008Z,36.82
2023-05-05T07:59:31.512Z,36.68
2023-05-05T08:01:59.934Z,37.03
2023-05-05T08:04:28.744Z,37.63
2023-05-05T08:06:57.285Z,36.21
2023-05-05T08:09:25.827Z,35.91
2023-05-05T08:11:54.368Z,35.35
2023-05-05T08:14:22.898Z,34.83
2023-05-05T08:16:51.344Z,34.81
2023-05-05T08:19:28.818Z,34.38
2023-05-05T08:22:00.575Z,34.55
2023-05-05T08:24:29.741Z,34.36
2023-05-05T08:26:58.595Z,33.34
2023-05-05T08:29:27.109Z,34.20
2023-05-05T08:31:55.853Z,34.03
2023-05-05T08:34:24.385Z,34.35
2023-05-05T08:36:52.952Z,35.04
2023-05-05T08:39:21.412Z,33.96
2023-05-05T08:41:50.056Z,34.17
2023-05-05T08:44:18.595Z,34.34
2023-05-05T08:46:47.244Z,34.38
2023-05-05T08:49:16.995Z,35.57
2023-05-05T08:51:46.981Z,34.37
2023-05-05T08:54:20.188Z,34.23
2023-05-05T08:56:51.483Z,34.54
2023-05-05T08:59:25.120Z,34.46
2023-05-05T09:01:54.971Z,34.25
2023-05-05T09:04:23.804Z,33.70
2023-05-05T09:06:52.337Z,34.20
2023-05-05T09:09:21.473Z,34.48
2023-05-05T09:11:50.319Z,33.87
2023-05-05T09:14:18.750Z,33.08
2023-05-05T09:16:47.292Z,33.77
2023-05-05T09:19:15.839Z,33.48
2023-05-05T09:21:53.069Z,33.46
2023-05-05T09:24:21.835Z,32.74
2023-05-05T09:26:50.341Z,32.50
2023-05-05T09:29:23.141Z,32.31
2023-05-05T09:32:19.192Z,32.42
2023-05-05T09:35:02.393Z,32.20
2023-05-05T09:37:32.745Z,31.72
2023-05-05T09:40:02.097Z,31.12
2023-05-05T09:42:30.610Z,31.22
2023-05-05T09:44:59.999Z,31.28
2023-05-05T09:47:38.705Z,31.36
2023-05-05T09:50:07.765Z,31.89
2023-05-05T09:52:36.518Z,31.46
2023-05-05T09:55:05.086Z,31.12
2023-05-05T09:57:35.451Z,30.96
2023-05-05T10:00:06.312Z,31.26
2023-05-05T10:02:37.553Z,29.62
2023-05-05T10:05:15.600Z,29.21
2023-05-05T10:07:46.981Z,28.74
2023-05-05T10:10:17.650Z,29.48
2023-05-05T10:12:47.930Z,29.47
2023-05-05T10:15:17.883Z,29.22
2023-05-05T10:18:06.192Z,28.48
2023-05-05T10:20:38.144Z,28.82
2023-05-05T10:23:09.481Z,28.86
2023-05-05T10:26:08.055Z,29.35
2023-05-05T10:28:46.137Z,28.95
2023-05-05T10:31:26.411Z,29.79
2023-05-05T10:34:04.618Z,28.37
2023-05-05T10:36:33.653Z,28.64
2023-05-05T10:39:02.286Z,29.46
2023-05-05T10:41:31.999Z,28.73
2023-05-05T10:44:03.675Z,28.72
2023-05-05T10:46:33.191Z,29.01
2023-05-05T10:49:26.836Z,28.11
2023-05-05T10:52:23.208Z,27.79
2023-05-05T10:55:31.702Z,29.01
2023-05-05T10:58:01.039Z,29.30
2023-05-05T11:00:41.406Z,29.50
2023-05-05T11:03:18.881Z,29.31
2023-05-05T11:06:05.108Z,29.93
2023-05-05T11:08:35.503Z,30.00
2023-05-05T11:11:04.624Z,31.11
2023-05-05T11:13:33.490Z,34.70
2023-05-05T11:16:03.185Z,30.13
2023-05-05T11:18:44.496Z,29.02
2023-05-05T11:21:17.557Z,29.03
2023-05-05T11:23:51.316Z,29.08
2023-05-05T11:26:50.347Z,29.04
2023-05-05T11:29:18.861Z,31.41
2023-05-05T11:31:48.803Z,30.42
2023-05-05T11:34:30.137Z,28.46
2023-05-05T11:37:03.335Z,28.27
2023-05-05T11:39:44.416Z,29.87
2023-05-05T11:42:27.755Z,29.48
2023-05-05T11:44:56.697Z,28.03
2023-05-05T11:47:28.038Z,28.09
2023-05-05T11:49:56.895Z,26.41
2023-05-05T11:52:27.554Z,28.08
2023-05-05T11:55:02.292Z,28.15
2023-05-05T11:57:31.327Z,28.07
2023-05-05T12:00:04.678Z,27.48
2023-05-05T12:02:33.361Z,27.15
2023-05-05T12:05:02.724Z,27.24
2023-05-05T12:07:33.733Z,27.94
2023-05-05T12:10:02.324Z,26.69
2023-05-05T12:12:41.506Z,27.82
2023-05-05T12:15:10.816Z,28.04
2023-05-05T12:17:42.817Z,28.79
2023-05-05T12:20:12.827Z,28.86
2023-05-05T12:22:42.166Z,28.93
2023-05-05T12:25:10.912Z,29.06
2023-05-05T12:27:39.429Z,29.32
2023-05-05T12:30:19.614Z,29.61
2023-05-05T12:32:48.219Z,28.11
2023-05-05T12:35:17.139Z,29.02
2023-05-05T12:37:46.404Z,29.80
2023-05-05T12:40:47.957Z,29.76
2023-05-05T12:43:45.950Z,30.32
2023-05-05T12:46:14.982Z,30.40
2023-05-05T12:48:47.231Z,30.54
2023-05-05T12:51:24.217Z,30.40
2023-05-05T12:54:11.246Z,30.32
2023-05-05T12:56:44.826Z,30.19
2023-05-05T12:59:30.077Z,30.74
2023-05-05T13:02:01.498Z,30.26
2023-05-05T13:04:30.447Z,30.09
2023-05-05T13:07:15.760Z,30.62
2023-05-05T13:09:54.649Z,31.12
2023-05-05T13:12:24.465Z,30.45
2023-05-05T13:14:56.221Z,31.02
2023-05-05T13:17:24.697Z,31.53
2023-05-05T13:19:53.218Z,31.18
2023-05-05T13:22:21.737Z,31.62
2023-05-05T13:24:52.805Z,31.65
2023-05-05T13:27:37.758Z,31.68
2023-05-05T13:30:06.701Z,31.59
2023-05-05T13:32:35.796Z,31.98
2023-05-05T13:35:04.543Z,32.00
2023-05-05T13:37:33.106Z,31.66
2023-05-05T13:40:01.625Z,31.46
2023-05-05T13:42:30.262Z,31.68
2023-05-05T13:44:58.760Z,32.03
2023-05-05T13:47:27.282Z,31.75
2023-05-05T13:49:56.252Z,31.72
2023-05-05T13:52:24.746Z,31.45
2023-05-05T13:54:53.340Z,31.92
2023-05-05T13:57:21.911Z,32.02
2023-05-05T13:59:50.456Z,31.19
2023-05-05T14:02:18.946Z,30.91
2023-05-05T14:04:47.621Z,30.77
2023-05-05T14:07:16.056Z,30.85
2023-05-05T14:09:44.568Z,30.99
2023-05-05T14:12:13.501Z,31.29
2023-05-05T14:14:41.941Z,31.78
2023-05-05T14:17:10.422Z,31.61
2023-05-05T14:19:38.957Z,30.95
2023-05-05T14:22:07.418Z,31.13
2023-05-05T14:24:35.979Z,31.45
2023-05-05T14:27:04.786Z,30.90
2023-05-05T14:29:33.468Z,31.35
2023-05-05T14:32:02.112Z,31.24
2023-05-05T14:34:30.637Z,31.01
2023-05-05T14:36:59.228Z,31.53
2023-05-05T14:39:27.733Z,31.33
2023-05-05T14:41:56.172Z,31.91
2023-05-05T14:44:24.709Z,31.67
2023-05-05T14:46:53.669Z,31.67
2023-05-05T14:49:22.151Z,31.93
2023-05-05T14:51:50.698Z,32.44
2023-05-05T14:54:27.902Z,31.93
2023-05-05T14:56:58.366Z,32.11
2023-05-05T14:59:27.582Z,32.08
2023-05-05T15:01:56.314Z,31.86
2023-05-05T15:04:24.892Z,31.79
2023-05-05T15:06:53.369Z,31.41
2023-05-05T15:09:21.812Z,31.47
2023-05-05T15:11:50.308Z,31.48
2023-05-05T15:14:18.776Z,31.55
2023-05-05T15:16:47.699Z,32.14
2023-05-05T15:19:16.168Z,32.17
2023-05-05T15:21:44.621Z,32.20
2023-05-05T15:24:13.332Z,32.16
2023-05-05T15:26:42.098Z,32.44
2023-05-05T15:29:10.597Z,32.65
2023-05-05T15:31:39.189Z,33.16
2023-05-05T15:34:07.661Z,32.80
2023-05-05T15:36:36.200Z,33.93
2023-05-05T15:39:04.848Z,34.49
2023-05-05T15:41:35.660Z,34.60
2023-05-05T15:44:04.970Z,34.48
2023-05-05T15:46:34.261Z,34.73
2023-05-05T15:49:02.799Z,34.64
2023-05-05T15:51:32.360Z,34.82
2023-05-05T15:54:00.878Z,34.36
2023-05-05T15:56:29.562Z,34.88
2023-05-05T15:58:58.006Z,34.73
2023-05-05T16:01:26.584Z,34.81
2023-05-05T16:03:55.084Z,35.13
2023-05-05T16:06:23.565Z,35.04
2023-05-05T16:08:52.092Z,34.88
2023-05-05T16:11:22.385Z,34.27
2023-05-05T16:13:52.322Z,34.78
2023-05-05T16:16:20.846Z,34.88
2023-05-05T16:18:50.111Z,35.34
2023-05-05T16:21:18.635Z,35.34
2023-05-05T16:23:47.491Z,35.25
2023-05-05T16:26:16.245Z,35.47
2023-05-05T16:28:44.809Z,35.54
2023-05-05T16:31:13.670Z,35.70
2023-05-05T16:33:43.764Z,35.85
2023-05-05T16:36:13.035Z,35.77
2023-05-05T16:38:44.626Z,35.87
2023-05-05T16:41:13.291Z,36.09
2023-05-05T16:43:41.790Z,36.22
2023-05-05T16:46:10.408Z,36.75
2023-05-05T16:48:39.122Z,36.78
2023-05-05T16:51:07.625Z,36.90
2023-05-05T16:53:36.354Z,37.12
2023-05-05T16:56:04.996Z,36.88
2023-05-05T16:58:33.667Z,37.16
2023-05-05T17:01:03.497Z,37.25
2023-05-05T17:03:31.977Z,37.29
2023-05-05T17:06:00.774Z,37.87
2023-05-05T17:08:29.468Z,38.06
2023-05-05T17:10:58.069Z,38.33
2023-05-05T17:13:26.915Z,38.66
2023-05-05T17:15:55.502Z,38.81
2023-05-05T17:18:26.040Z,38.73
2023-05-05T17:20:54.624Z,38.87
2023-05-05T17:23:23.307Z,39.35
2023-05-05T17:25:51.858Z,39.76
2023-05-05T17:28:20.733Z,39.70
2023-05-05T17:30:49.266Z,40.22
2023-05-05T17:33:21.481Z,40.18
2023-05-05T17:35:50.170Z,40.61
2023-05-05T17:38:18.618Z,40.64
2023-05-05T17:40:47.264Z,41.23
2023-05-05T17:43:15.821Z,41.27
2023-05-05T17:45:44.465Z,41.57
2023-05-05T17:48:12.969Z,42.13
2023-05-05T17:50:43.313Z,42.66
2023-05-05T17:53:12.377Z,42.87
2023-05-05T17:55:40.922Z,43.02
2023-05-05T17:58:09.404Z,42.77
2023-05-05T18:00:38.174Z,43.34
2023-05-05T18:03:06.846Z,43.29
2023-05-05T18:05:35.525Z,43.49
2023-05-05T18:08:04.132Z,44.08
2023-05-05T18:10:32.734Z,44.24
2023-05-05T18:13:01.432Z,44.19
2023-05-05T18:15:30.863Z,44.12
2023-05-05T18:17:59.400Z,44.24
2023-05-05T18:20:27.973Z,44.23
2023-05-05T18:22:56.602Z,44.59
2023-05-05T18:25:25.086Z,44.55
2023-05-05T18:27:53.848Z,46.16
2023-05-05T18:30:22.581Z,48.33
2023-05-05T18:32:51.124Z,49.41
2023-05-05T18:35:19.615Z,53.97
2023-05-05T18:37:48.110Z,56.41
2023-05-05T18:40:16.821Z,57.82
2023-05-05T18:42:45.499Z,58.20
2023-05-05T18:45:13.964Z,59.52
2023-05-05T18:47:42.375Z,60.35
2023-05-05T18:50:11.097Z,60.92
2023-05-05T18:52:39.585Z,61.82
2023-05-05T18:55:08.408Z,61.99
2023-05-05T18:57:37.054Z,64.06
2023-05-05T19:00:05.879Z,63.64
2023-05-05T19:02:34.586Z,65.24
2023-05-05T19:05:03.913Z,65.48
2023-05-05T19:07:35.855Z,65.75
2023-05-05T19:10:06.506Z,65.62
2023-05-05T19:12:35.190Z,66.50
2023-05-05T19:15:03.751Z,66.34
2023-05-05T19:17:32.197Z,66.70
2023-05-05T19:20:00.743Z,67.02
2023-05-05T19:22:29.220Z,66.79
2023-05-05T19:24:57.726Z,67.15
2023-05-05T19:27:26.520Z,67.37
2023-05-05T19:29:55.047Z,70.35
2023-05-05T19:32:23.743Z,71.90
2023-05-05T19:34:54.384Z,74.78
2023-05-05T19:37:23.245Z,85.29
2023-05-05T19:39:51.783Z,84.03
2023-05-05T19:42:20.741Z,88.26
2023-05-05T19:44:49.271Z,92.43
2023-05-05T19:47:18.022Z,92.28
2023-05-05T19:49:46.609Z,90.27
2023-05-05T19:52:15.147Z,89.34
2023-05-05T19:54:43.930Z,90.77
2023-05-05T19:57:12.752Z,91.37
2023-05-05T19:59:41.762Z,91.99
2023-05-05T20:02:11.774Z,91.68
2023-05-05T20:04:40.482Z,93.38
2023-05-05T20:07:09.020Z,95.24
2023-05-05T20:09:38.066Z,96.70
2023-05-05T20:12:06.791Z,100.00
2023-05-05T20:14:35.720Z,100.00
2023-05-05T20:17:04.270Z,100.00
2023-05-05T20:19:32.744Z,100.00
2023-05-05T20:22:01.315Z,100.00
2023-05-05T20:24:29.903Z,100.00
2023-05-05T20:26:58.407Z,100.00
2023-05-05T20:29:26.855Z,100.00
2023-05-05T20:31:55.452Z,100.00
2023-05-05T20:34:25.195Z,100.00
2023-05-05T20:36:54.258Z,100.00
2023-05-05T20:39:22.942Z,100.00
2023-05-05T20:41:51.430Z,100.00
2023-05-05T20:44:19.864Z,100.00
2023-05-05T20:46:48.436Z,100.00
2023-05-05T20:49:17.011Z,100.00
2023-05-05T20:51:45.679Z,100.00
2023-05-05T20:54:14.316Z,100.00
2023-05-05T20:56:42.868Z,100.00
2023-05-05T20:59:11.381Z,100.00
2023-05-05T21:01:39.954Z,100.00
2023-05-05T21:04:08.471Z,100.00
2023-05-05T21:06:36.990Z,100.00
2023-05-05T21:09:06.853Z,100.00
2023-05-05T21:11:35.445Z,100.00
2023-05-05T21:14:05.343Z,100.00
2023-05-05T21:16:33.910Z,100.00
2023-05-05T21:19:02.569Z,100.00
2023-05-05T21:21:31.820Z,100.00
2023-05-05T21:24:00.429Z,100.00
2023-05-05T21:26:28.966Z,100.00
2023-05-05T21:28:57.455Z,100.00
2023-05-05T21:31:25.941Z,100.00
2023-05-05T21:33:54.534Z,100.00
2023-05-05T21:36:23.005Z,100.00
2023-05-05T21:38:51.543Z,100.00
2023-05-05T21:41:20.056Z,100.00
2023-05-05T21:43:48.224Z,100.00
2023-05-05T21:46:17.723Z,100.00
2023-05-05T21:48:48.626Z,100.00
2023-05-05T21:51:17.452Z,100.00
2023-05-05T21:53:46.218Z,100.00
2023-05-05T21:56:14.931Z,100.00
2023-05-05T21:58:43.382Z,100.00
2023-05-05T22:01:12.011Z,100.00
2023-05-05T22:03:42.246Z,100.00
2023-05-05T22:06:11.791Z,100.00
2023-05-05T22:08:40.240Z,100.00
2023-05-05T22:11:08.876Z,100.00
2023-05-05T22:13:38.956Z,100.00
2023-05-05T22:16:11.012Z,100.00
2023-05-05T22:18:39.688Z,100.00
2023-05-05T22:21:08.301Z,100.00
2023-05-05T22:23:37.171Z,100.00
2023-05-05T22:26:05.834Z,100.00
2023-05-05T22:28:34.315Z,100.00
2023-05-05T22:31:02.927Z,100.00
2023-05-05T22:33:31.494Z,100.00
2023-05-05T22:36:00.041Z,100.00
2023-05-05T22:38:28.148Z,100.00
2023-05-05T22:40:56.607Z,100.00
2023-05-05T22:43:25.137Z,100.00
2023-05-05T22:45:53.882Z,100.00
2023-05-05T22:48:22.921Z,100.00
2023-05-05T22:50:51.617Z,100.00
2023-05-05T22:53:20.112Z,100.00
2023-05-05T22:55:48.596Z,100.00
2023-05-05T22:58:17.059Z,100.00
2023-05-05T23:00:45.743Z,100.00
2023-05-05T23:03:14.919Z,100.00
2023-05-05T23:05:43.000Z,100.00
2023-05-05T23:08:11.474Z,100.00
2023-05-05T23:10:39.953Z,100.00
2023-05-05T23:13:08.522Z,100.00
2023-05-05T23:15:37.068Z,100.00
2023-05-05T23:18:05.631Z,100.00
2023-05-05T23:20:34.119Z,100.00
2023-05-05T23:23:02.244Z,100.00
2023-05-05T23:25:30.769Z,100.00
2023-05-05T23:27:59.285Z,100.00
2023-05-05T23:30:27.866Z,100.00
2023-05-05T23:32:57.531Z,100.00
2023-05-05T23:35:26.399Z,100.00
2023-05-05T23:37:54.879Z,100.00
2023-05-05T23:40:23.060Z,100.00
2023-05-05T23:42:51.220Z,100.00
2023-05-05T23:45:19.747Z,100.00
2023-05-05T23:47:48.195Z,100.00
2023-05-05T23:50:16.865Z,100.00
2023-05-05T23:52:45.795Z,100.00
2023-05-05T23:55:14.493Z,100.00
2023-05-05T23:57:42.594Z,100.00
